Time;durP1;ratioP1;P1;durP2;ratioP2;P2;SDS_P1;SDS_P2;PMS_P1;PMS_P2;Temp;Humidity;BMP_temperature;BMP_pressure;BME280_temperature;BME280_humidity;BME280_pressure;Samples;Min_cycle;Max_cycle;Signal;HPM_P1;HPM_P2
2022/08/28 00:01:26;;;;;;;17.03;11.80;;;19.70;99.90;19.10;100007;;;;553469;255;24129;-81
2022/08/28 00:03:54;;;;;;;13.50;11.60;;;19.60;99.90;19.00;100017;;;;553471;255;24132;-79
2022/08/28 00:06:25;;;;;;;18.47;13.57;;;19.70;99.90;19.00;100013;;;;553347;255;24187;-78
2022/08/28 00:08:50;;;;;;;18.77;16.15;;;19.60;99.90;18.90;100017;;;;548342;255;35793;-79
2022/08/28 00:11:19;;;;;;;18.33;13.90;;;19.50;99.90;18.80;100009;;;;553517;255;24147;-78
2022/08/28 00:13:46;;;;;;;16.00;13.10;;;19.40;99.90;18.70;100013;;;;553479;255;24220;-81
2022/08/28 00:16:17;;;;;;;15.97;13.20;;;19.40;99.90;18.70;100010;;;;553278;255;24133;-80
2022/08/28 00:18:42;;;;;;;19.87;13.67;;;19.30;99.90;18.60;100007;;;;552915;255;24166;-81
2022/08/28 00:21:13;;;;;;;20.37;13.77;;;19.20;99.90;18.50;100005;;;;553261;255;24222;-80
2022/08/28 00:23:38;;;;;;;17.07;13.70;;;19.10;99.90;18.50;100007;;;;561773;251;24140;-81
2022/08/28 00:26:06;;;;;;;20.13;14.10;;;19.10;99.90;18.40;100010;;;;562850;255;24182;-80
2022/08/28 00:28:34;;;;;;;19.77;14.90;;;19.00;99.90;18.40;100012;;;;553315;255;24158;-81
2022/08/28 00:31:03;;;;;;;19.90;14.90;;;18.90;99.90;18.30;100013;;;;553276;255;24198;-80
2022/08/28 00:33:29;;;;;;;25.27;16.90;;;18.90;99.90;18.30;100010;;;;553252;255;24202;-81
2022/08/28 00:36:00;;;;;;;22.07;16.73;;;18.80;99.90;18.20;100006;;;;553175;255;24175;-81
2022/08/28 00:38:28;;;;;;;22.20;17.33;;;18.70;99.90;18.10;100009;;;;553204;255;24182;-82
2022/08/28 00:40:54;;;;;;;20.70;17.20;;;18.60;99.90;18.10;100007;;;;553232;255;24198;-81
2022/08/28 00:43:34;;;;;;;26.57;19.23;;;18.60;99.90;18.10;100011;;;;553295;255;24160;-81
2022/08/28 00:46:02;;;;;;;22.73;18.70;;;18.60;99.90;18.00;100002;;;;552756;255;24211;-82
2022/08/28 00:48:30;;;;;;;22.27;16.93;;;18.60;99.90;18.00;100003;;;;553191;251;24158;-78
2022/08/28 00:53:47;;;;;;;18.23;16.23;;;18.50;99.90;17.90;99999;;;;554277;251;24213;-78
2022/08/28 00:56:13;;;;;;;27.67;22.92;;;18.40;99.90;17.90;99999;;;;548926;255;35795;-77
2022/08/28 00:58:44;;;;;;;26.63;20.50;;;18.40;99.90;17.80;99994;;;;553961;255;24131;-75
2022/08/28 01:01:10;;;;;;;24.87;20.10;;;18.30;99.90;17.80;99990;;;;553609;255;24175;-80
2022/08/28 01:03:42;;;;;;;28.60;22.80;;;18.30;99.90;17.70;99998;;;;553775;255;24185;-80
2022/08/28 01:06:07;;;;;;;24.83;20.37;;;18.20;99.90;17.70;99994;;;;553427;255;24140;-76
2022/08/28 01:08:35;;;;;;;21.37;18.87;;;18.20;99.90;17.60;99995;;;;553560;255;24140;-77
2022/08/28 01:11:03;;;;;;;26.70;24.02;;;18.20;99.90;17.60;99994;;;;548579;255;35736;-76
2022/08/28 01:13:33;;;;;;;23.13;20.63;;;18.20;99.90;17.50;100005;;;;553466;255;24132;-77
2022/08/28 01:16:01;;;;;;;26.27;18.50;;;18.10;99.90;17.50;100004;;;;553310;255;24215;-80
2022/08/28 01:18:30;;;;;;;21.23;17.90;;;18.00;99.90;17.50;99996;;;;553457;255;24148;-80
2022/08/28 01:21:28;;;;;;;22.97;20.33;;;18.00;99.90;17.40;99999;;;;553357;255;24147;-81
2022/08/28 01:24:13;;;;;;;25.47;19.47;;;18.00;99.90;17.30;100000;;;;561568;255;24146;-77
2022/08/28 01:26:39;;;;;;;23.07;16.30;;;17.90;99.90;17.30;99993;;;;553156;255;24172;-78
2022/08/28 01:29:09;;;;;;;18.97;16.57;;;17.80;99.90;17.30;99992;;;;553272;255;24195;-78
2022/08/28 01:31:39;;;;;;;20.77;15.37;;;17.80;99.90;17.20;99986;;;;552890;255;24178;-77
2022/08/28 01:34:03;;;;;;;26.23;22.27;;;17.70;99.90;17.20;99984;;;;552592;255;24227;-77
2022/08/28 01:36:32;;;;;;;50.83;41.90;;;17.80;99.90;17.20;99990;;;;553226;255;24156;-78
2022/08/28 01:39:02;;;;;;;35.77;26.83;;;17.80;99.90;17.20;99978;;;;552831;255;24189;-77
2022/08/28 01:41:30;;;;;;;50.60;39.47;;;17.80;99.90;17.20;99977;;;;552514;255;24231;-79
2022/08/28 01:43:58;;;;;;;60.73;47.53;;;17.70;99.90;17.10;99977;;;;553037;255;24293;-77
2022/08/28 01:46:30;;;;;;;48.43;36.90;;;17.70;99.90;17.10;99982;;;;553256;255;24151;-77
2022/08/28 01:48:54;;;;;;;39.00;31.83;;;17.70;99.90;17.10;99984;;;;552656;255;24251;-77
2022/08/28 01:51:24;;;;;;;44.60;35.30;;;17.70;99.90;17.10;99982;;;;552992;251;24229;-78
2022/08/28 01:53:50;;;;;;;41.47;30.73;;;17.70;99.90;17.10;99981;;;;560758;251;24180;-78
2022/08/28 01:56:17;;;;;;;40.80;32.67;;;17.70;99.90;17.10;99983;;;;553142;255;24167;-79
2022/08/28 01:58:47;;;;;;;43.00;32.50;;;17.60;99.90;17.10;99981;;;;553019;255;24177;-81
2022/08/28 02:01:13;;;;;;;35.67;28.73;;;17.60;99.90;17.10;99984;;;;553001;255;24209;-81
2022/08/28 02:03:44;;;;;;;40.07;32.77;;;17.60;99.90;17.00;99983;;;;553997;255;24171;-80
2022/08/28 02:06:12;;;;;;;52.23;41.37;;;17.60;99.90;17.00;99981;;;;554125;255;24245;-82
2022/08/28 02:08:41;;;;;;;60.07;41.60;;;17.50;99.90;17.00;99984;;;;553674;255;24162;-80
2022/08/28 02:11:12;;;;;;;55.13;39.37;;;17.50;99.90;16.90;99978;;;;553395;255;24190;-79
2022/08/28 02:13:41;;;;;;;47.60;35.63;;;17.50;99.90;16.90;99981;;;;553322;255;24148;-80
2022/08/28 02:16:05;;;;;;;38.70;28.73;;;17.40;99.90;16.90;99973;;;;561288;251;24159;-80
2022/08/28 02:18:36;;;;;;;36.97;26.03;;;17.40;99.90;16.80;99977;;;;561587;255;24166;-79
2022/08/28 02:21:01;;;;;;;36.23;25.57;;;17.40;99.90;16.80;99972;;;;552978;255;24192;-79
2022/08/28 02:23:32;;;;;;;29.50;23.47;;;17.40;99.90;16.90;99977;;;;553534;255;24132;-79
2022/08/28 02:25:57;;;;;;;31.20;21.53;;;17.40;99.90;16.90;99975;;;;552775;255;24171;-81
2022/08/28 02:28:25;;;;;;;29.13;22.00;;;17.50;99.90;16.90;99980;;;;553031;255;24163;-77
2022/08/28 02:30:53;;;;;;;31.33;20.90;;;17.50;99.90;16.90;99977;;;;553229;255;24153;-78
2022/08/28 02:33:20;;;;;;;31.97;20.70;;;17.50;99.90;16.90;99976;;;;553477;251;24181;-80
2022/08/28 02:35:48;;;;;;;28.17;21.80;;;17.50;99.90;16.90;99973;;;;561697;251;24143;-81
2022/08/28 02:38:16;;;;;;;31.58;26.48;;;17.50;99.90;16.90;99977;;;;548564;255;35612;-80
2022/08/28 02:40:44;;;;;;;31.57;22.93;;;17.50;99.90;16.90;99971;;;;553250;255;24138;-82
2022/08/28 02:43:12;;;;;;;25.23;20.50;;;17.50;99.90;16.90;99974;;;;553265;255;24159;-81
2022/08/28 02:45:40;;;;;;;29.37;20.20;;;17.50;99.90;17.00;99971;;;;553223;255;24172;-79
2022/08/28 02:48:08;;;;;;;26.33;19.20;;;17.50;99.90;17.00;99977;;;;552864;255;24185;-81
2022/08/28 02:50:36;;;;;;;25.33;19.17;;;17.60;99.90;17.00;99975;;;;552770;255;24148;-81
2022/08/28 02:53:04;;;;;;;25.00;18.13;;;17.60;99.90;17.00;99978;;;;552642;255;24219;-80
2022/08/28 02:55:32;;;;;;;20.33;17.57;;;17.60;99.90;17.10;99973;;;;552929;255;24235;-81
2022/08/28 02:58:00;;;;;;;21.83;18.80;;;17.60;99.90;17.00;99968;;;;552830;255;24164;-82
2022/08/28 03:00:28;;;;;;;25.33;17.97;;;17.60;99.90;17.00;99966;;;;552955;255;24211;-81
2022/08/28 03:02:55;;;;;;;23.17;18.07;;;17.60;99.90;17.00;99963;;;;552882;255;24183;-81
2022/08/28 03:05:23;;;;;;;23.40;17.43;;;17.60;99.90;17.00;99963;;;;553120;255;24166;-81
2022/08/28 03:07:55;;;;;;;20.97;17.73;;;17.60;99.90;17.00;99964;;;;553094;255;24212;-81
2022/08/28 03:10:23;;;;;;;25.03;18.87;;;17.60;99.90;17.00;99963;;;;552931;255;24206;-77
2022/08/28 03:12:47;;;;;;;20.20;16.13;;;17.60;99.90;17.00;99960;;;;561038;252;24144;-76
2022/08/28 03:15:16;;;;;;;23.33;16.80;;;17.60;99.90;17.00;99960;;;;554092;255;24170;-83
2022/08/28 03:17:43;;;;;;;19.33;15.20;;;17.60;99.90;17.00;99963;;;;553935;255;24194;-80
2022/08/28 03:20:11;;;;;;;25.90;14.30;;;17.60;99.90;17.00;99961;;;;553528;251;24162;-81
2022/08/28 03:25:25;;;;;;;17.73;13.00;;;17.60;99.90;17.00;99963;;;;553276;255;24134;-80
2022/08/28 03:27:53;;;;;;;16.20;13.37;;;17.60;99.90;17.00;99966;;;;553473;255;24155;-81
2022/08/28 03:30:20;;;;;;;18.73;15.10;;;17.60;99.90;17.10;99968;;;;553409;255;24179;-81
2022/08/28 03:32:48;;;;;;;17.97;14.40;;;17.60;99.90;17.20;99957;;;;561248;253;24162;-80
2022/08/28 03:35:20;;;;;;;21.03;14.97;;;17.70;99.90;17.20;99966;;;;553434;255;24162;-80
2022/08/28 03:37:44;;;;;;;19.43;14.33;;;17.70;99.90;17.10;99963;;;;561213;255;24142;-82
2022/08/28 03:40:13;;;;;;;20.80;15.47;;;17.70;99.90;17.10;99970;;;;553529;255;24187;-80
2022/08/28 03:42:40;;;;;;;17.47;14.70;;;17.70;99.90;17.00;99962;;;;553441;255;24179;-81
2022/08/28 03:45:11;;;;;;;17.73;14.50;;;17.60;99.90;17.00;99956;;;;553551;255;24189;-80
2022/08/28 03:47:36;;;;;;;17.98;16.10;;;17.60;99.90;17.00;99963;;;;548008;255;35702;-80
2022/08/28 03:50:04;;;;;;;15.77;13.37;;;17.60;99.90;17.10;99955;;;;553111;255;24163;-79
2022/08/28 03:52:33;;;;;;;16.87;13.63;;;17.70;99.90;17.10;99961;;;;552877;255;24183;-80
2022/08/28 03:55:01;;;;;;;17.27;13.33;;;17.70;99.90;17.20;99961;;;;552988;255;24225;-81
2022/08/28 03:57:30;;;;;;;19.87;13.67;;;17.80;99.90;17.20;99960;;;;553102;255;24165;-80
2022/08/28 03:59:58;;;;;;;18.73;13.73;;;17.80;99.90;17.30;99958;;;;552919;255;24153;-80
2022/08/28 04:02:26;;;;;;;18.87;12.80;;;17.90;99.90;17.30;99953;;;;552696;255;24286;-80
2022/08/28 04:04:54;;;;;;;15.07;13.20;;;17.90;99.90;17.40;99955;;;;552978;255;24164;-81
2022/08/28 04:07:22;;;;;;;19.40;13.00;;;17.90;99.90;17.40;99959;;;;552830;255;24193;-79
2022/08/28 04:09:49;;;;;;;15.70;13.17;;;17.90;99.90;17.40;99961;;;;552939;255;24138;-81
2022/08/28 04:12:17;;;;;;;14.07;12.60;;;18.00;99.90;17.40;99966;;;;552842;255;24171;-82
2022/08/28 04:14:45;;;;;;;15.57;12.83;;;18.00;99.90;17.50;99964;;;;553221;255;24154;-80
2022/08/28 04:17:13;;;;;;;18.73;13.43;;;18.00;99.90;17.50;99968;;;;552899;255;24287;-82
2022/08/28 04:19:43;;;;;;;17.60;12.73;;;18.00;99.90;17.60;99968;;;;552763;255;24165;-78
2022/08/28 04:22:09;;;;;;;16.13;13.20;;;18.10;99.90;17.60;99971;;;;552887;255;24269;-78
2022/08/28 04:24:38;;;;;;;14.37;12.87;;;18.20;99.90;17.70;99968;;;;552853;255;24168;-78
2022/08/28 04:27:06;;;;;;;19.80;13.43;;;18.30;99.90;17.80;99962;;;;554228;255;24138;-78
2022/08/28 04:29:34;;;;;;;21.07;13.80;;;18.30;99.90;17.90;99969;;;;553809;255;24168;-80
2022/08/28 04:32:02;;;;;;;16.13;13.97;;;18.40;99.90;18.00;99971;;;;553427;255;24182;-77
2022/08/28 04:34:31;;;;;;;16.67;13.27;;;18.60;99.90;18.10;99964;;;;553462;255;24194;-78
2022/08/28 04:36:59;;;;;;;15.43;12.50;;;18.60;99.90;18.20;99970;;;;553235;255;24146;-78
2022/08/28 04:39:27;;;;;;;16.47;12.47;;;18.70;99.90;18.30;99962;;;;553434;255;24140;-78
2022/08/28 04:41:55;;;;;;;17.37;12.93;;;18.80;99.90;18.50;99964;;;;553332;255;24154;-79
2022/08/28 04:44:23;;;;;;;19.97;12.63;;;19.00;99.90;18.60;99965;;;;553282;255;24140;-80
2022/08/28 04:46:51;;;;;;;16.43;11.73;;;19.10;99.90;18.80;99969;;;;553071;255;24142;-81
2022/08/28 04:49:18;;;;;;;15.00;11.83;;;19.30;99.90;19.00;99973;;;;553433;255;24146;-80
2022/08/28 04:51:47;;;;;;;13.37;11.97;;;19.50;99.90;19.80;99972;;;;553449;255;24171;-81
2022/08/28 04:54:18;;;;;;;14.98;13.52;;;20.20;99.90;21.10;99969;;;;549194;255;35808;-78
2022/08/28 04:56:42;;;;;;;17.27;13.30;;;21.30;99.90;22.20;99982;;;;554102;255;24142;-80
2022/08/28 04:59:10;;;;;;;12.60;11.30;;;22.40;99.90;23.20;99970;;;;554493;255;23159;-79
2022/08/28 05:01:38;;;;;;;12.23;10.93;;;23.50;99.90;24.10;99975;;;;554087;255;24168;-80
2022/08/28 05:04:06;;;;;;;13.90;11.03;;;24.50;99.90;25.00;99975;;;;552840;255;24183;-79
2022/08/28 05:06:34;;;;;;;13.90;10.50;;;25.40;99.90;25.90;99973;;;;552653;255;23229;-79
2022/08/28 05:09:02;;;;;;;13.87;11.10;;;26.30;99.90;26.70;99970;;;;553044;255;23157;-80
2022/08/28 05:11:30;;;;;;;11.80;10.67;;;27.10;99.90;27.50;99976;;;;552906;255;24193;-80
2022/08/28 05:13:58;;;;;;;11.60;10.07;;;27.90;99.90;28.40;99983;;;;553201;255;23181;-81
2022/08/28 05:16:26;;;;;;;10.70;9.80;;;28.80;99.90;29.20;99986;;;;552885;255;23167;-81
2022/08/28 05:18:53;;;;;;;12.57;9.90;;;29.60;99.90;29.80;99986;;;;560990;255;23154;-79
2022/08/28 05:21:21;;;;;;;13.90;9.20;;;30.30;99.90;30.60;99986;;;;552519;255;23169;-81
2022/08/28 05:23:50;;;;;;;12.27;9.68;;;31.70;96.50;31.30;99993;;;;552655;255;24233;-80
2022/08/28 05:26:19;;;;;;;12.60;9.73;;;32.40;93.90;32.00;99991;;;;552870;255;23167;-82
2022/08/28 05:28:47;;;;;;;11.18;10.07;;;32.30;93.90;32.70;99992;;;;552835;255;23215;-82
2022/08/28 05:31:17;;;;;;;11.80;8.95;;;33.10;90.60;33.20;100008;;;;552786;255;23310;-80
2022/08/28 05:33:46;;;;;;;10.80;9.90;;;33.70;85.30;33.80;100001;;;;553223;255;23192;-80
2022/08/28 05:36:16;;;;;;;15.27;9.30;;;34.20;81.30;34.30;100004;;;;562669;255;23168;-81
2022/08/28 05:38:41;;;;;;;10.50;9.50;;;34.70;77.90;34.90;100006;;;;554281;255;23214;-80
2022/08/28 05:41:09;;;;;;;11.12;10.18;;;35.20;76.40;35.50;100014;;;;554105;255;23164;-81
2022/08/28 05:43:37;;;;;;;12.55;9.23;;;35.90;73.10;36.20;100010;;;;553107;255;23160;-80
2022/08/28 05:46:06;;;;;;;14.10;9.60;;;36.60;70.20;36.80;100010;;;;561714;255;24228;-80
2022/08/28 05:48:33;;;;;;;8.75;7.95;;;37.20;66.70;37.40;100010;;;;553617;255;23157;-80
2022/08/28 05:51:06;;;;;;;11.12;9.07;;;37.80;62.50;37.90;100014;;;;553641;255;23162;-81
2022/08/28 05:53:36;;;;;;;9.15;7.93;;;38.80;58.60;38.40;100021;;;;553646;255;23181;-79
2022/08/28 05:56:16;;;;;;;9.73;7.93;;;39.20;56.50;38.90;100030;;;;553105;255;23251;-82
2022/08/28 05:58:44;;;;;;;9.40;8.63;;;39.20;56.50;39.30;100027;;;;552965;255;24221;-81
2022/08/28 06:01:15;;;;;;;9.23;8.43;;;39.70;54.90;39.80;100035;;;;553103;255;23167;-81
2022/08/28 06:03:42;;;;;;;9.35;8.43;;;40.10;53.00;40.00;100042;;;;552655;255;23423;-82
2022/08/28 06:06:11;;;;;;;11.25;9.10;;;40.40;52.70;40.20;100033;;;;553358;255;23156;-81
2022/08/28 06:08:39;;;;;;;10.35;8.45;;;40.90;52.20;40.60;100035;;;;561560;255;23175;-80
2022/08/28 06:11:08;;;;;;;10.95;9.15;;;41.40;52.00;41.10;100034;;;;553320;255;23154;-79
2022/08/28 06:13:36;;;;;;;9.50;8.25;;;41.30;51.80;41.60;100033;;;;553357;255;23170;-80
2022/08/28 06:16:06;;;;;;;12.48;8.73;;;41.90;51.00;41.90;100040;;;;553132;255;24183;-79
2022/08/28 06:18:31;;;;;;;9.52;8.50;;;42.20;49.90;42.00;100042;;;;552861;255;23168;-80
2022/08/28 06:20:59;;;;;;;10.57;8.73;;;42.40;49.20;42.10;100038;;;;553158;255;23210;-81
2022/08/28 06:23:28;;;;;;;9.23;8.32;;;42.60;48.60;42.20;100043;;;;553162;255;23164;-82
2022/08/28 06:25:57;;;;;;;9.98;7.75;;;42.60;48.50;42.20;100033;;;;552746;255;24205;-79
2022/08/28 06:28:24;;;;;;;13.35;9.15;;;42.70;48.70;42.50;100041;;;;552867;255;23148;-82
2022/08/28 06:30:52;;;;;;;8.95;8.05;;;42.80;48.30;42.50;100034;;;;553538;255;23173;-80
2022/08/28 06:33:20;;;;;;;12.82;8.57;;;42.90;47.90;42.60;100038;;;;553737;255;23151;-79
2022/08/28 06:35:48;;;;;;;12.77;8.20;;;43.00;47.70;42.80;100040;;;;553399;255;23171;-81
2022/08/28 06:38:15;;;;;;;8.85;8.15;;;43.10;47.30;43.10;100044;;;;552865;255;23152;-81
2022/08/28 06:40:52;;;;;;;11.98;8.25;;;43.40;47.70;43.70;100045;;;;553170;255;23157;-79
2022/08/28 06:43:20;;;;;;;10.98;8.00;;;43.80;46.90;44.20;100046;;;;552818;255;23218;-81
2022/08/28 06:45:48;;;;;;;9.40;8.57;;;44.30;46.40;44.50;100052;;;;552648;255;23166;-83
2022/08/28 06:48:16;;;;;;;9.15;8.27;;;44.70;45.40;44.90;100046;;;;553659;253;23210;-82
2022/08/28 06:50:48;;;;;;;11.77;8.15;;;45.10;45.60;45.30;100050;;;;563035;251;23189;-81
2022/08/28 06:53:12;;;;;;;8.90;8.07;;;45.40;44.50;45.60;100049;;;;553792;255;23179;-81
2022/08/28 06:55:42;;;;;;;9.20;8.25;;;45.80;43.80;46.00;100055;;;;553833;255;23192;-81
2022/08/28 06:58:08;;;;;;;14.13;8.38;;;46.10;42.90;46.30;100050;;;;553542;255;23211;-80
2022/08/28 07:00:35;;;;;;;11.35;7.97;;;46.40;42.20;46.30;100064;;;;553322;255;23161;-85
2022/08/28 07:03:04;;;;;;;9.18;8.38;;;46.60;42.20;46.70;100057;;;;553380;255;23144;-82
2022/08/28 07:05:34;;;;;;;8.93;8.02;;;46.80;41.50;46.80;100074;;;;561698;252;23203;-83
2022/08/28 07:08:02;;;;;;;9.15;8.35;;;46.90;41.40;47.00;100066;;;;556265;251;35730;-80
2022/08/28 07:10:30;;;;;;;8.50;7.72;;;47.20;41.10;47.20;100073;;;;553025;255;23178;-81
2022/08/28 07:12:59;;;;;;;9.45;8.57;;;47.40;41.30;47.70;100073;;;;552691;255;23246;-85
2022/08/28 07:15:27;;;;;;;9.23;7.90;;;48.20;40.70;48.30;100068;;;;553350;255;23180;-82
2022/08/28 07:17:55;;;;;;;9.40;7.82;;;48.60;39.60;48.50;100069;;;;553052;255;23173;-84
2022/08/28 07:20:23;;;;;;;10.50;9.10;;;48.50;39.40;48.50;100076;;;;548175;255;35671;-80
2022/08/28 07:22:52;;;;;;;7.80;7.15;;;48.80;39.00;48.30;100070;;;;553146;255;23141;-80
2022/08/28 07:25:20;;;;;;;9.27;7.25;;;48.70;39.40;48.50;100076;;;;552710;255;23196;-80
2022/08/28 07:27:47;;;;;;;9.27;7.60;;;48.80;39.20;48.70;100083;;;;552907;255;23160;-80
2022/08/28 07:30:15;;;;;;;7.78;7.15;;;48.90;39.10;49.00;100069;;;;552900;255;23174;-81
2022/08/28 07:32:47;;;;;;;8.45;7.72;;;49.20;39.20;49.00;100076;;;;552703;255;23271;-82
2022/08/28 07:35:12;;;;;;;8.80;7.85;;;49.20;38.30;48.70;100076;;;;552640;255;23235;-83
2022/08/28 07:37:39;;;;;;;8.55;7.85;;;49.00;38.70;48.50;100076;;;;552821;255;23190;-84
2022/08/28 07:40:08;;;;;;;9.52;8.10;;;48.90;38.70;48.20;100075;;;;552883;255;23294;-82
2022/08/28 07:45:24;;;;;;;8.88;8.25;;;48.40;39.10;48.30;100079;;;;553192;255;23167;-82
2022/08/28 07:47:50;;;;;;;8.18;7.35;;;48.70;38.90;48.60;100086;;;;552494;255;23188;-82
2022/08/28 07:50:18;;;;;;;9.57;8.55;;;48.60;38.80;49.00;100086;;;;553088;255;24233;-84
2022/08/28 07:52:46;;;;;;;9.07;8.40;;;49.00;38.80;49.50;100082;;;;553338;255;23151;-83
2022/08/28 07:55:14;;;;;;;8.98;8.07;;;49.50;38.70;49.80;100084;;;;553399;255;23149;-82
2022/08/28 07:57:42;;;;;;;9.57;7.87;;;49.90;37.60;50.20;100092;;;;553500;255;23170;-84
2022/08/28 08:00:13;;;;;;;9.45;7.82;;;50.30;37.00;50.40;100088;;;;554097;253;24217;-82
2022/08/28 08:02:37;;;;;;;9.50;8.05;;;50.50;37.10;50.60;100091;;;;554977;251;23205;-83
2022/08/28 08:05:05;;;;;;;8.93;7.72;;;50.80;36.80;50.60;100091;;;;554130;255;23200;-83
2022/08/28 08:07:33;;;;;;;12.20;8.98;;;50.90;37.00;50.90;100090;;;;553708;255;23149;-84
2022/08/28 08:10:01;;;;;;;9.50;7.72;;;51.20;37.00;51.00;100095;;;;561622;252;23236;-84
2022/08/28 08:12:31;;;;;;;8.85;8.05;;;51.30;36.80;51.20;100095;;;;553659;255;23212;-84
2022/08/28 08:14:57;;;;;;;8.20;7.50;;;51.40;36.70;51.40;100096;;;;553626;255;23215;-84
2022/08/28 08:17:25;;;;;;;9.10;8.30;;;51.60;36.50;51.70;100103;;;;553659;255;23204;-85
2022/08/28 08:19:54;;;;;;;8.80;7.97;;;52.10;36.30;51.90;100094;;;;553342;255;23153;-83
2022/08/28 08:22:23;;;;;;;15.10;8.40;;;52.20;36.20;52.00;100085;;;;553421;255;23189;-83
2022/08/28 08:24:54;;;;;;;8.35;7.75;;;52.20;36.20;52.10;100099;;;;553334;255;24231;-80
2022/08/28 08:27:18;;;;;;;8.40;7.57;;;52.40;35.70;52.30;100088;;;;553135;255;23193;-84
2022/08/28 08:29:47;;;;;;;9.30;8.45;;;52.60;35.40;52.70;100092;;;;553399;255;24214;-83
2022/08/28 08:32:14;;;;;;;9.38;8.57;;;52.90;35.60;52.90;100095;;;;553074;255;23153;-85
2022/08/28 08:34:42;;;;;;;9.40;8.40;;;53.20;35.00;52.90;100097;;;;553023;255;23168;-83
2022/08/28 08:37:10;;;;;;;8.98;8.02;;;53.40;34.70;52.70;100096;;;;552932;255;23202;-84
2022/08/28 08:39:38;;;;;;;10.52;9.00;;;53.40;34.60;52.90;100099;;;;552854;255;24200;-82
2022/08/28 08:42:06;;;;;;;9.30;8.60;;;53.50;34.20;52.90;100097;;;;547925;255;35682;-86
2022/08/28 08:44:36;;;;;;;9.55;8.60;;;53.70;34.00;52.70;100096;;;;547831;255;35679;-84
2022/08/28 08:47:20;;;;;;;9.10;8.20;;;53.70;34.10;52.40;100098;;;;552737;255;23287;-84
2022/08/28 08:49:56;;;;;;;9.27;8.27;;;53.40;34.40;52.30;100100;;;;553035;255;23215;-86
2022/08/28 08:52:38;;;;;;;8.70;8.00;;;53.40;34.40;52.50;100101;;;;553068;255;24192;-85
2022/08/28 08:55:27;;;;;;;8.48;7.85;;;53.40;34.50;52.80;100099;;;;552969;255;23165;-81
2022/08/28 08:58:07;;;;;;;9.20;7.97;;;53.50;34.60;53.10;100102;;;;553109;255;23180;-83
2022/08/28 09:00:40;;;;;;;9.48;8.30;;;53.80;34.10;53.40;100107;;;;553088;255;24215;-81
2022/08/28 09:03:42;;;;;;;9.05;8.15;;;54.20;33.70;53.50;100103;;;;557494;252;23227;-83
2022/08/28 09:06:11;;;;;;;9.15;8.32;;;54.20;33.70;53.80;100111;;;;550944;256;23237;-80
2022/08/28 09:08:41;;;;;;;8.35;7.80;;;54.70;33.60;54.10;100106;;;;542368;260;23232;-81
2022/08/28 09:11:30;;;;;;;8.70;7.82;;;55.00;32.90;54.00;100100;;;;547591;255;23160;-81
2022/08/28 09:14:12;;;;;;;8.70;7.95;;;55.00;32.90;54.20;100101;;;;554268;255;23213;-80
2022/08/28 09:16:39;;;;;;;9.38;8.20;;;55.20;33.10;54.30;100099;;;;553671;255;23157;-82
2022/08/28 09:19:07;;;;;;;8.32;7.82;;;55.40;32.70;54.40;100103;;;;553608;255;23208;-81
2022/08/28 09:21:35;;;;;;;8.90;8.10;;;55.60;32.30;54.30;100099;;;;553406;255;23173;-83
2022/08/28 09:24:03;;;;;;;9.00;8.30;;;55.50;32.50;54.20;100106;;;;553371;255;23212;-81
2022/08/28 09:26:32;;;;;;;10.52;9.20;;;55.50;32.50;54.10;100101;;;;553366;255;23184;-82
2022/08/28 09:29:01;;;;;;;9.30;8.50;;;55.50;32.40;54.10;100100;;;;553313;255;23195;-84
2022/08/28 09:31:32;;;;;;;9.10;8.40;;;55.70;32.50;54.30;100098;;;;553017;255;23170;-82
2022/08/28 09:34:31;;;;;;;10.32;9.45;;;55.70;32.40;54.70;100096;;;;560620;252;23224;-84
2022/08/28 09:36:59;;;;;;;11.48;9.10;;;56.10;32.90;55.10;100100;;;;553062;255;23153;-83
2022/08/28 09:39:30;;;;;;;10.25;8.20;;;56.70;31.80;55.30;100102;;;;553073;255;24266;-83
2022/08/28 09:45:20;;;;;;;8.75;7.97;;;56.30;31.50;54.80;100103;;;;553354;255;23223;-83
2022/08/28 09:47:49;;;;;;;10.15;7.97;;;56.20;31.00;54.70;100102;;;;552626;255;23232;-82
2022/08/28 09:50:32;;;;;;;8.60;7.62;;;56.20;31.00;54.60;100101;;;;553112;255;23194;-85
2022/08/28 09:53:09;;;;;;;9.05;7.43;;;56.20;30.50;54.50;100096;;;;553282;255;23148;-85
2022/08/28 09:56:07;;;;;;;11.55;8.05;;;56.20;31.00;54.80;100097;;;;561474;252;24235;-86
2022/08/28 09:58:38;;;;;;;9.10;7.28;;;56.50;30.50;54.50;100098;;;;553216;255;23200;-82
2022/08/28 10:01:27;;;;;;;10.02;7.57;;;56.40;30.90;54.40;100097;;;;553071;255;23206;-83
2022/08/28 10:04:19;;;;;;;7.50;7.00;;;56.30;30.50;54.10;100101;;;;561455;251;23157;-83
2022/08/28 10:06:52;;;;;;;8.90;8.10;;;56.00;30.90;54.00;100099;;;;552871;255;23255;-81
2022/08/28 10:09:44;;;;;;;9.80;8.40;;;55.70;31.20;53.40;100103;;;;556275;251;35745;-82
2022/08/28 10:12:30;;;;;;;9.00;7.45;;;55.40;31.50;52.00;100102;;;;561452;255;23214;-82
2022/08/28 10:15:17;;;;;;;8.13;7.40;;;52.50;33.50;50.50;100106;;;;552648;255;23219;-83
2022/08/28 10:18:09;;;;;;;12.70;8.00;;;52.40;33.40;48.70;100107;;;;552977;255;23184;-82
2022/08/28 10:20:51;;;;;;;8.73;7.62;;;50.60;34.70;46.90;100103;;;;552940;255;23191;-83
2022/08/28 10:23:43;;;;;;;8.65;7.57;;;48.60;36.20;45.60;100109;;;;553937;253;24190;-84
2022/08/28 10:26:29;;;;;;;11.30;8.18;;;47.00;37.50;44.30;100102;;;;562550;251;23154;-80
2022/08/28 10:29:06;;;;;;;9.45;8.45;;;45.50;38.80;43.30;100103;;;;562262;255;23188;-83
2022/08/28 10:31:36;;;;;;;8.45;7.75;;;44.40;40.50;42.30;100101;;;;553929;255;23205;-79
2022/08/28 10:34:31;;;;;;;9.32;7.90;;;43.40;41.30;41.40;100105;;;;553508;255;24231;-83
2022/08/28 10:37:11;;;;;;;8.93;8.10;;;41.40;43.10;40.50;100107;;;;553910;255;23226;-82
2022/08/28 10:39:46;;;;;;;8.20;7.12;;;41.30;43.00;39.70;100109;;;;553891;255;23158;-78
2022/08/28 10:42:13;;;;;;;11.40;7.85;;;40.50;43.70;39.00;100100;;;;553375;255;23189;-81
2022/08/28 10:44:41;;;;;;;10.15;7.40;;;39.70;44.50;38.40;100096;;;;553592;255;24227;-77
2022/08/28 10:47:09;;;;;;;8.98;8.23;;;39.00;46.00;37.90;100102;;;;552875;255;24199;-82
2022/08/28 10:49:37;;;;;;;11.65;7.93;;;38.30;46.70;37.10;100094;;;;553875;255;23167;-81
2022/08/28 10:52:19;;;;;;;11.07;7.50;;;37.60;47.80;36.50;100097;;;;553922;255;23219;-81
2022/08/28 10:55:07;;;;;;;8.88;7.57;;;36.20;49.70;35.90;100096;;;;553962;255;23149;-82
2022/08/28 10:57:44;;;;;;;9.18;8.27;;;35.70;50.10;35.40;100092;;;;553811;255;24147;-78
2022/08/28 11:00:15;;;;;;;10.40;8.27;;;35.60;50.00;35.00;100096;;;;553525;251;24179;-79
2022/08/28 11:02:52;;;;;;;13.10;7.90;;;35.20;50.40;34.60;100086;;;;553377;255;23205;-78
2022/08/28 11:05:23;;;;;;;13.70;8.38;;;34.40;52.70;34.20;100092;;;;553497;255;24181;-83
2022/08/28 11:07:57;;;;;;;12.32;10.18;;;34.30;52.60;33.70;100098;;;;561028;252;24212;-83
2022/08/28 11:10:34;;;;;;;17.17;10.20;;;34.00;54.20;33.30;100097;;;;552776;255;24227;-80
2022/08/28 11:13:05;;;;;;;13.15;9.98;;;33.60;56.40;32.90;100100;;;;560976;251;23162;-81
2022/08/28 11:15:30;;;;;;;14.02;10.07;;;33.20;57.00;32.60;100092;;;;552768;255;23173;-82
2022/08/28 11:18:17;;;;;;;13.40;10.20;;;33.00;58.00;32.40;100102;;;;553413;255;23223;-80
2022/08/28 11:20:56;;;;;;;18.52;12.00;;;32.70;57.90;32.10;100099;;;;562271;251;23170;-78
2022/08/28 11:23:28;;;;;;;16.40;12.75;;;32.40;60.20;31.80;100107;;;;553103;255;23202;-80
2022/08/28 11:25:57;;;;;;;15.02;11.35;;;32.20;61.50;31.50;100106;;;;553023;255;23236;-79
2022/08/28 11:28:26;;;;;;;12.37;11.02;;;31.90;62.40;31.20;100107;;;;552739;255;23247;-78
2022/08/28 11:31:06;;;;;;;13.40;10.93;;;31.70;63.20;31.10;100112;;;;552922;255;24184;-81